Terminal Aerodrome Forecast
Issued by NWS Brownsville, TX

Home | Current Version | Previous Version | Text Only | Print | Product List | Glossary On
Versions: 1 2 3 4 5 6 7 8 9 10 11 12 13 14 15 16 17 18 19 20
000
FTUS44 KBRO 292027 AAA
TAFHRL
TAF AMD
KHRL 292027Z 2920/3018 19010KT P6SM SKC
     FM300200 14010KT P6SM OVC030
     FM300600 15007KT 5SM BR OVC010
     FM301200 16004KT 4SM BR OVC008=

USA.gov is the U.S. government's official web portal to all federal, state and local government web resources and services.